sensor_id;sensor_type;location;lat;lon;timestamp;P1;durP1;ratioP1;P2;durP2;ratioP2
34741;SDS011;20968;42.696;23.360;2023-02-28T00:00:35;26.60;;;11.98;;
34741;SDS011;20968;42.696;23.360;2023-02-28T00:03:01;18.67;;;10.30;;
34741;SDS011;20968;42.696;23.360;2023-02-28T00:05:27;26.25;;;11.95;;
34741;SDS011;20968;42.696;23.360;2023-02-28T00:07:53;25.63;;;10.02;;
34741;SDS011;20968;42.696;23.360;2023-02-28T00:10:20;21.42;;;11.07;;
34741;SDS011;20968;42.696;23.360;2023-02-28T00:12:52;21.20;;;11.65;;
34741;SDS011;20968;42.696;23.360;2023-02-28T00:15:19;20.35;;;11.88;;
34741;SDS011;20968;42.696;23.360;2023-02-28T00:17:45;18.67;;;10.45;;
34741;SDS011;20968;42.696;23.360;2023-02-28T00:20:11;21.42;;;10.35;;
34741;SDS011;20968;42.696;23.360;2023-02-28T00:22:38;22.42;;;11.18;;
34741;SDS011;20968;42.696;23.360;2023-02-28T00:25:05;19.95;;;11.32;;
34741;SDS011;20968;42.696;23.360;2023-02-28T00:27:32;23.25;;;11.02;;
34741;SDS011;20968;42.696;23.360;2023-02-28T00:29:59;25.48;;;12.80;;
34741;SDS011;20968;42.696;23.360;2023-02-28T00:32:26;31.95;;;13.73;;
34741;SDS011;20968;42.696;23.360;2023-02-28T00:34:51;24.38;;;12.35;;
34741;SDS011;20968;42.696;23.360;2023-02-28T00:37:17;28.23;;;14.45;;
34741;SDS011;20968;42.696;23.360;2023-02-28T00:39:42;25.08;;;14.40;;
34741;SDS011;20968;42.696;23.360;2023-02-28T00:42:08;30.92;;;14.18;;
34741;SDS011;20968;42.696;23.360;2023-02-28T00:44:33;24.35;;;13.10;;
34741;SDS011;20968;42.696;23.360;2023-02-28T00:46:59;25.33;;;12.88;;
34741;SDS011;20968;42.696;23.360;2023-02-28T00:49:26;25.90;;;12.25;;
34741;SDS011;20968;42.696;23.360;2023-02-28T00:51:52;25.63;;;12.30;;
34741;SDS011;20968;42.696;23.360;2023-02-28T00:54:18;20.33;;;11.85;;
34741;SDS011;20968;42.696;23.360;2023-02-28T00:56:44;23.48;;;11.80;;
34741;SDS011;20968;42.696;23.360;2023-02-28T00:59:11;23.17;;;10.35;;
34741;SDS011;20968;42.696;23.360;2023-02-28T01:01:37;20.38;;;12.20;;
34741;SDS011;20968;42.696;23.360;2023-02-28T01:04:03;20.60;;;11.20;;
34741;SDS011;20968;42.696;23.360;2023-02-28T01:06:29;18.90;;;11.25;;
34741;SDS011;20968;42.696;23.360;2023-02-28T01:08:55;22.42;;;11.82;;
34741;SDS011;20968;42.696;23.360;2023-02-28T01:11:20;21.23;;;10.63;;
34741;SDS011;20968;42.696;23.360;2023-02-28T01:13:47;17.23;;;10.05;;
34741;SDS011;20968;42.696;23.360;2023-02-28T01:16:13;24.08;;;10.90;;
34741;SDS011;20968;42.696;23.360;2023-02-28T01:18:39;21.40;;;10.23;;
34741;SDS011;20968;42.696;23.360;2023-02-28T01:21:09;20.42;;;9.88;;
34741;SDS011;20968;42.696;23.360;2023-02-28T01:23:38;20.35;;;11.73;;
34741;SDS011;20968;42.696;23.360;2023-02-28T01:26:08;17.95;;;9.63;;
34741;SDS011;20968;42.696;23.360;2023-02-28T01:28:44;18.98;;;10.38;;
34741;SDS011;20968;42.696;23.360;2023-02-28T01:31:13;19.48;;;10.68;;
34741;SDS011;20968;42.696;23.360;2023-02-28T01:33:39;18.75;;;9.93;;
34741;SDS011;20968;42.696;23.360;2023-02-28T01:36:06;22.42;;;10.68;;
34741;SDS011;20968;42.696;23.360;2023-02-28T01:38:49;16.45;;;9.13;;
34741;SDS011;20968;42.696;23.360;2023-02-28T01:41:16;21.35;;;10.70;;
34741;SDS011;20968;42.696;23.360;2023-02-28T01:46:13;15.48;;;9.48;;
34741;SDS011;20968;42.696;23.360;2023-02-28T01:48:43;24.05;;;11.70;;
34741;SDS011;20968;42.696;23.360;2023-02-28T01:51:11;22.38;;;12.05;;
34741;SDS011;20968;42.696;23.360;2023-02-28T01:53:47;21.25;;;10.85;;
34741;SDS011;20968;42.696;23.360;2023-02-28T01:56:17;22.70;;;11.10;;
34741;SDS011;20968;42.696;23.360;2023-02-28T01:58:51;20.13;;;11.40;;
34741;SDS011;20968;42.696;23.360;2023-02-28T02:01:20;22.13;;;13.05;;
34741;SDS011;20968;42.696;23.360;2023-02-28T02:03:51;21.42;;;11.75;;
34741;SDS011;20968;42.696;23.360;2023-02-28T02:06:28;23.10;;;13.02;;
34741;SDS011;20968;42.696;23.360;2023-02-28T02:08:58;25.30;;;13.30;;
34741;SDS011;20968;42.696;23.360;2023-02-28T02:11:23;22.65;;;12.43;;
34741;SDS011;20968;42.696;23.360;2023-02-28T02:14:13;30.40;;;13.95;;
34741;SDS011;20968;42.696;23.360;2023-02-28T02:16:53;31.38;;;14.35;;
34741;SDS011;20968;42.696;23.360;2023-02-28T02:22:46;28.45;;;13.52;;
34741;SDS011;20968;42.696;23.360;2023-02-28T02:36:28;25.40;;;12.50;;
34741;SDS011;20968;42.696;23.360;2023-02-28T02:39:06;32.05;;;14.55;;
34741;SDS011;20968;42.696;23.360;2023-02-28T02:41:41;30.35;;;14.38;;
34741;SDS011;20968;42.696;23.360;2023-02-28T02:44:33;28.77;;;14.80;;
34741;SDS011;20968;42.696;23.360;2023-02-28T02:47:13;27.75;;;13.30;;
34741;SDS011;20968;42.696;23.360;2023-02-28T02:49:46;29.92;;;13.50;;
34741;SDS011;20968;42.696;23.360;2023-02-28T02:52:18;28.10;;;13.70;;
34741;SDS011;20968;42.696;23.360;2023-02-28T02:54:48;29.05;;;13.98;;
34741;SDS011;20968;42.696;23.360;2023-02-28T02:57:42;28.15;;;14.68;;
34741;SDS011;20968;42.696;23.360;2023-02-28T03:00:07;25.58;;;12.95;;
34741;SDS011;20968;42.696;23.360;2023-02-28T03:02:36;26.42;;;13.35;;
34741;SDS011;20968;42.696;23.360;2023-02-28T03:05:20;26.42;;;12.20;;
34741;SDS011;20968;42.696;23.360;2023-02-28T03:07:50;31.42;;;14.68;;
34741;SDS011;20968;42.696;23.360;2023-02-28T03:10:32;24.60;;;12.48;;
34741;SDS011;20968;42.696;23.360;2023-02-28T03:25:21;24.27;;;11.68;;
34741;SDS011;20968;42.696;23.360;2023-02-28T03:30:52;22.98;;;12.23;;
34741;SDS011;20968;42.696;23.360;2023-02-28T03:33:24;27.40;;;13.15;;
34741;SDS011;20968;42.696;23.360;2023-02-28T03:36:06;29.65;;;14.90;;
34741;SDS011;20968;42.696;23.360;2023-02-28T03:38:38;33.50;;;16.65;;
34741;SDS011;20968;42.696;23.360;2023-02-28T03:43:58;40.65;;;17.45;;
34741;SDS011;20968;42.696;23.360;2023-02-28T03:46:31;34.50;;;17.13;;
34741;SDS011;20968;42.696;23.360;2023-02-28T03:49:02;29.30;;;15.35;;
34741;SDS011;20968;42.696;23.360;2023-02-28T03:51:34;40.53;;;16.75;;
34741;SDS011;20968;42.696;23.360;2023-02-28T03:54:21;36.47;;;18.52;;
34741;SDS011;20968;42.696;23.360;2023-02-28T03:59:53;39.40;;;17.63;;
34741;SDS011;20968;42.696;23.360;2023-02-28T04:02:41;40.92;;;16.67;;
34741;SDS011;20968;42.696;23.360;2023-02-28T04:05:07;40.95;;;17.23;;
34741;SDS011;20968;42.696;23.360;2023-02-28T04:07:32;30.83;;;14.48;;
34741;SDS011;20968;42.696;23.360;2023-02-28T04:09:58;37.20;;;17.45;;
34741;SDS011;20968;42.696;23.360;2023-02-28T04:12:24;38.63;;;16.33;;
34741;SDS011;20968;42.696;23.360;2023-02-28T04:14:49;34.45;;;16.40;;
34741;SDS011;20968;42.696;23.360;2023-02-28T04:17:15;36.55;;;15.80;;
34741;SDS011;20968;42.696;23.360;2023-02-28T04:19:41;37.75;;;16.25;;
34741;SDS011;20968;42.696;23.360;2023-02-28T04:22:07;33.10;;;15.40;;
34741;SDS011;20968;42.696;23.360;2023-02-28T04:24:33;36.55;;;16.73;;
34741;SDS011;20968;42.696;23.360;2023-02-28T04:26:59;37.13;;;17.50;;
34741;SDS011;20968;42.696;23.360;2023-02-28T04:29:31;35.95;;;16.88;;
34741;SDS011;20968;42.696;23.360;2023-02-28T04:31:57;37.88;;;18.73;;
34741;SDS011;20968;42.696;23.360;2023-02-28T04:34:25;38.53;;;17.23;;
34741;SDS011;20968;42.696;23.360;2023-02-28T04:36:51;36.05;;;16.33;;
34741;SDS011;20968;42.696;23.360;2023-02-28T04:39:19;30.08;;;14.50;;
34741;SDS011;20968;42.696;23.360;2023-02-28T04:41:45;35.17;;;17.10;;
34741;SDS011;20968;42.696;23.360;2023-02-28T04:44:11;29.05;;;14.45;;
34741;SDS011;20968;42.696;23.360;2023-02-28T04:46:37;37.05;;;18.63;;
34741;SDS011;20968;42.696;23.360;2023-02-28T04:49:02;45.67;;;18.25;;
34741;SDS011;20968;42.696;23.360;2023-02-28T04:51:28;37.00;;;17.00;;
34741;SDS011;20968;42.696;23.360;2023-02-28T04:53:53;43.63;;;18.65;;
34741;SDS011;20968;42.696;23.360;2023-02-28T04:56:19;44.60;;;18.05;;
34741;SDS011;20968;42.696;23.360;2023-02-28T04:58:45;45.45;;;18.35;;
34741;SDS011;20968;42.696;23.360;2023-02-28T05:04:10;33.97;;;15.48;;
34741;SDS011;20968;42.696;23.360;2023-02-28T05:06:35;39.00;;;16.05;;
34741;SDS011;20968;42.696;23.360;2023-02-28T05:09:01;40.90;;;15.77;;
34741;SDS011;20968;42.696;23.360;2023-02-28T05:11:30;40.03;;;16.38;;
34741;SDS011;20968;42.696;23.360;2023-02-28T05:14:04;38.83;;;16.70;;
34741;SDS011;20968;42.696;23.360;2023-02-28T05:16:32;30.45;;;14.27;;
34741;SDS011;20968;42.696;23.360;2023-02-28T05:18:58;44.00;;;18.10;;
34741;SDS011;20968;42.696;23.360;2023-02-28T05:21:29;50.65;;;18.42;;
34741;SDS011;20968;42.696;23.360;2023-02-28T05:23:59;49.50;;;19.50;;
34741;SDS011;20968;42.696;23.360;2023-02-28T05:26:36;49.10;;;22.42;;
34741;SDS011;20968;42.696;23.360;2023-02-28T05:29:03;51.13;;;19.98;;
34741;SDS011;20968;42.696;23.360;2023-02-28T05:31:28;39.05;;;18.08;;
34741;SDS011;20968;42.696;23.360;2023-02-28T05:33:54;36.83;;;16.98;;
34741;SDS011;20968;42.696;23.360;2023-02-28T05:36:19;38.00;;;17.17;;
34741;SDS011;20968;42.696;23.360;2023-02-28T05:38:46;48.47;;;20.13;;
34741;SDS011;20968;42.696;23.360;2023-02-28T05:41:13;43.92;;;17.50;;
34741;SDS011;20968;42.696;23.360;2023-02-28T05:43:39;39.78;;;16.88;;
34741;SDS011;20968;42.696;23.360;2023-02-28T05:46:05;41.38;;;17.25;;
34741;SDS011;20968;42.696;23.360;2023-02-28T05:48:34;42.00;;;19.02;;
34741;SDS011;20968;42.696;23.360;2023-02-28T05:51:00;40.90;;;17.48;;
34741;SDS011;20968;42.696;23.360;2023-02-28T05:53:27;44.08;;;18.30;;
34741;SDS011;20968;42.696;23.360;2023-02-28T05:55:53;51.88;;;20.40;;
34741;SDS011;20968;42.696;23.360;2023-02-28T05:58:19;44.75;;;19.08;;
34741;SDS011;20968;42.696;23.360;2023-02-28T06:00:46;55.25;;;20.65;;
34741;SDS011;20968;42.696;23.360;2023-02-28T06:03:11;48.58;;;21.75;;
34741;SDS011;20968;42.696;23.360;2023-02-28T06:05:39;41.60;;;17.65;;
34741;SDS011;20968;42.696;23.360;2023-02-28T06:08:05;47.17;;;19.95;;
34741;SDS011;20968;42.696;23.360;2023-02-28T06:10:32;44.72;;;20.80;;
34741;SDS011;20968;42.696;23.360;2023-02-28T06:13:02;48.80;;;20.75;;
34741;SDS011;20968;42.696;23.360;2023-02-28T06:15:28;43.53;;;21.27;;
34741;SDS011;20968;42.696;23.360;2023-02-28T06:17:54;41.45;;;18.30;;
34741;SDS011;20968;42.696;23.360;2023-02-28T06:20:21;40.80;;;18.63;;
34741;SDS011;20968;42.696;23.360;2023-02-28T06:22:47;43.67;;;19.23;;
34741;SDS011;20968;42.696;23.360;2023-02-28T06:25:13;50.83;;;20.95;;
34741;SDS011;20968;42.696;23.360;2023-02-28T06:27:38;43.10;;;19.30;;
34741;SDS011;20968;42.696;23.360;2023-02-28T06:30:04;43.92;;;19.50;;
34741;SDS011;20968;42.696;23.360;2023-02-28T06:32:30;41.63;;;17.95;;
34741;SDS011;20968;42.696;23.360;2023-02-28T06:34:55;46.22;;;20.63;;
34741;SDS011;20968;42.696;23.360;2023-02-28T06:37:22;36.67;;;18.67;;
34741;SDS011;20968;42.696;23.360;2023-02-28T06:39:51;41.17;;;19.63;;
34741;SDS011;20968;42.696;23.360;2023-02-28T06:42:16;43.80;;;20.45;;
34741;SDS011;20968;42.696;23.360;2023-02-28T06:44:42;45.08;;;21.20;;
34741;SDS011;20968;42.696;23.360;2023-02-28T06:47:08;46.65;;;21.13;;
34741;SDS011;20968;42.696;23.360;2023-02-28T06:49:34;36.88;;;19.25;;
34741;SDS011;20968;42.696;23.360;2023-02-28T06:52:00;38.17;;;18.92;;
34741;SDS011;20968;42.696;23.360;2023-02-28T06:54:26;42.10;;;18.85;;
34741;SDS011;20968;42.696;23.360;2023-02-28T06:56:52;38.50;;;19.42;;
34741;SDS011;20968;42.696;23.360;2023-02-28T06:59:19;56.22;;;23.08;;
34741;SDS011;20968;42.696;23.360;2023-02-28T07:01:45;38.50;;;20.73;;
34741;SDS011;20968;42.696;23.360;2023-02-28T07:04:11;44.33;;;21.02;;
34741;SDS011;20968;42.696;23.360;2023-02-28T07:06:38;52.65;;;22.45;;
34741;SDS011;20968;42.696;23.360;2023-02-28T07:09:03;54.22;;;23.50;;
34741;SDS011;20968;42.696;23.360;2023-02-28T07:11:29;45.58;;;21.38;;
34741;SDS011;20968;42.696;23.360;2023-02-28T07:13:55;41.42;;;21.75;;
34741;SDS011;20968;42.696;23.360;2023-02-28T07:16:21;48.13;;;21.08;;
34741;SDS011;20968;42.696;23.360;2023-02-28T07:18:47;41.25;;;22.20;;
34741;SDS011;20968;42.696;23.360;2023-02-28T07:21:13;40.63;;;21.13;;
34741;SDS011;20968;42.696;23.360;2023-02-28T07:23:39;38.72;;;20.85;;
34741;SDS011;20968;42.696;23.360;2023-02-28T07:26:06;39.05;;;21.25;;
34741;SDS011;20968;42.696;23.360;2023-02-28T07:28:32;40.53;;;19.13;;
34741;SDS011;20968;42.696;23.360;2023-02-28T07:31:03;38.22;;;19.95;;
34741;SDS011;20968;42.696;23.360;2023-02-28T07:36:05;36.97;;;18.13;;
34741;SDS011;20968;42.696;23.360;2023-02-28T07:38:33;34.17;;;19.65;;
34741;SDS011;20968;42.696;23.360;2023-02-28T07:41:00;40.30;;;19.65;;
34741;SDS011;20968;42.696;23.360;2023-02-28T07:43:29;36.47;;;18.67;;
34741;SDS011;20968;42.696;23.360;2023-02-28T07:45:55;30.05;;;17.23;;
34741;SDS011;20968;42.696;23.360;2023-02-28T07:48:20;31.15;;;16.92;;
34741;SDS011;20968;42.696;23.360;2023-02-28T07:50:53;23.65;;;14.57;;
34741;SDS011;20968;42.696;23.360;2023-02-28T07:53:20;28.02;;;17.10;;
34741;SDS011;20968;42.696;23.360;2023-02-28T07:55:45;33.05;;;16.75;;
34741;SDS011;20968;42.696;23.360;2023-02-28T07:58:11;37.88;;;20.15;;
34741;SDS011;20968;42.696;23.360;2023-02-28T08:00:36;39.95;;;21.95;;
34741;SDS011;20968;42.696;23.360;2023-02-28T08:03:02;37.78;;;22.30;;
34741;SDS011;20968;42.696;23.360;2023-02-28T08:05:27;36.08;;;20.75;;
34741;SDS011;20968;42.696;23.360;2023-02-28T08:07:53;34.88;;;20.50;;
34741;SDS011;20968;42.696;23.360;2023-02-28T08:10:18;36.67;;;19.30;;
34741;SDS011;20968;42.696;23.360;2023-02-28T08:12:43;34.75;;;19.70;;
34741;SDS011;20968;42.696;23.360;2023-02-28T08:15:09;38.80;;;20.83;;
34741;SDS011;20968;42.696;23.360;2023-02-28T08:17:37;34.35;;;20.30;;
34741;SDS011;20968;42.696;23.360;2023-02-28T08:20:03;31.23;;;18.70;;
34741;SDS011;20968;42.696;23.360;2023-02-28T08:22:29;29.38;;;17.90;;
34741;SDS011;20968;42.696;23.360;2023-02-28T08:24:54;37.75;;;18.88;;
34741;SDS011;20968;42.696;23.360;2023-02-28T08:27:20;32.05;;;17.55;;
34741;SDS011;20968;42.696;23.360;2023-02-28T08:29:45;35.05;;;18.45;;
34741;SDS011;20968;42.696;23.360;2023-02-28T08:32:11;31.25;;;17.83;;
34741;SDS011;20968;42.696;23.360;2023-02-28T08:34:38;31.73;;;19.00;;
34741;SDS011;20968;42.696;23.360;2023-02-28T08:37:05;29.48;;;16.80;;
34741;SDS011;20968;42.696;23.360;2023-02-28T08:39:33;36.72;;;18.05;;
34741;SDS011;20968;42.696;23.360;2023-02-28T08:42:01;35.30;;;18.77;;
34741;SDS011;20968;42.696;23.360;2023-02-28T08:44:27;37.15;;;18.92;;
34741;SDS011;20968;42.696;23.360;2023-02-28T08:46:52;28.55;;;17.10;;
34741;SDS011;20968;42.696;23.360;2023-02-28T08:49:18;39.33;;;18.70;;
34741;SDS011;20968;42.696;23.360;2023-02-28T08:51:43;36.55;;;15.05;;
34741;SDS011;20968;42.696;23.360;2023-02-28T08:54:09;42.42;;;16.92;;
34741;SDS011;20968;42.696;23.360;2023-02-28T08:56:37;34.67;;;15.05;;
34741;SDS011;20968;42.696;23.360;2023-02-28T08:59:03;28.70;;;14.75;;
34741;SDS011;20968;42.696;23.360;2023-02-28T09:01:31;38.05;;;14.82;;
34741;SDS011;20968;42.696;23.360;2023-02-28T09:03:57;30.58;;;13.40;;
34741;SDS011;20968;42.696;23.360;2023-02-28T09:06:24;26.85;;;13.98;;
34741;SDS011;20968;42.696;23.360;2023-02-28T09:08:51;32.95;;;13.68;;
34741;SDS011;20968;42.696;23.360;2023-02-28T09:11:17;27.80;;;13.23;;
34741;SDS011;20968;42.696;23.360;2023-02-28T09:13:44;31.17;;;14.35;;
34741;SDS011;20968;42.696;23.360;2023-02-28T09:16:11;20.48;;;12.30;;
34741;SDS011;20968;42.696;23.360;2023-02-28T09:18:38;31.40;;;15.05;;
34741;SDS011;20968;42.696;23.360;2023-02-28T09:21:05;29.75;;;12.13;;
34741;SDS011;20968;42.696;23.360;2023-02-28T09:23:34;29.83;;;14.98;;
34741;SDS011;20968;42.696;23.360;2023-02-28T09:26:03;26.63;;;12.18;;
34741;SDS011;20968;42.696;23.360;2023-02-28T09:28:28;31.10;;;13.25;;
34741;SDS011;20968;42.696;23.360;2023-02-28T09:30:54;24.80;;;15.48;;
34741;SDS011;20968;42.696;23.360;2023-02-28T09:33:20;31.38;;;13.20;;
34741;SDS011;20968;42.696;23.360;2023-02-28T09:35:47;30.25;;;13.75;;
34741;SDS011;20968;42.696;23.360;2023-02-28T09:38:22;39.63;;;14.00;;
34741;SDS011;20968;42.696;23.360;2023-02-28T09:40:50;31.52;;;12.93;;
34741;SDS011;20968;42.696;23.360;2023-02-28T09:43:21;27.63;;;15.52;;
34741;SDS011;20968;42.696;23.360;2023-02-28T09:45:53;32.50;;;17.40;;
34741;SDS011;20968;42.696;23.360;2023-02-28T09:48:27;34.65;;;15.05;;
34741;SDS011;20968;42.696;23.360;2023-02-28T09:51:05;30.77;;;10.82;;
34741;SDS011;20968;42.696;23.360;2023-02-28T09:53:37;26.20;;;11.70;;
34741;SDS011;20968;42.696;23.360;2023-02-28T09:56:07;26.52;;;11.30;;
34741;SDS011;20968;42.696;23.360;2023-02-28T10:04:23;22.75;;;10.75;;
34741;SDS011;20968;42.696;23.360;2023-02-28T10:06:58;24.70;;;10.00;;
34741;SDS011;20968;42.696;23.360;2023-02-28T10:09:28;26.13;;;12.18;;
34741;SDS011;20968;42.696;23.360;2023-02-28T10:11:59;25.88;;;10.85;;
34741;SDS011;20968;42.696;23.360;2023-02-28T10:14:29;39.72;;;10.88;;
34741;SDS011;20968;42.696;23.360;2023-02-28T10:16:59;24.83;;;11.30;;
34741;SDS011;20968;42.696;23.360;2023-02-28T10:22:17;20.83;;;9.23;;
34741;SDS011;20968;42.696;23.360;2023-02-28T10:24:50;26.88;;;10.07;;
34741;SDS011;20968;42.696;23.360;2023-02-28T10:29:45;23.30;;;10.38;;
34741;SDS011;20968;42.696;23.360;2023-02-28T10:32:20;18.35;;;9.70;;
34741;SDS011;20968;42.696;23.360;2023-02-28T10:34:57;21.58;;;8.77;;
34741;SDS011;20968;42.696;23.360;2023-02-28T10:37:30;19.77;;;8.63;;
34741;SDS011;20968;42.696;23.360;2023-02-28T10:39:57;25.63;;;9.20;;
34741;SDS011;20968;42.696;23.360;2023-02-28T10:42:24;35.75;;;13.10;;
34741;SDS011;20968;42.696;23.360;2023-02-28T10:47:40;18.15;;;9.50;;
34741;SDS011;20968;42.696;23.360;2023-02-28T10:53:05;17.05;;;8.98;;
34741;SDS011;20968;42.696;23.360;2023-02-28T10:55:39;27.52;;;14.73;;
34741;SDS011;20968;42.696;23.360;2023-02-28T10:58:17;28.55;;;12.25;;
34741;SDS011;20968;42.696;23.360;2023-02-28T11:00:46;25.95;;;11.35;;
34741;SDS011;20968;42.696;23.360;2023-02-28T11:03:28;35.45;;;13.63;;
34741;SDS011;20968;42.696;23.360;2023-02-28T11:05:55;27.45;;;12.27;;
34741;SDS011;20968;42.696;23.360;2023-02-28T11:08:22;26.45;;;12.07;;
34741;SDS011;20968;42.696;23.360;2023-02-28T11:10:57;31.40;;;14.05;;
34741;SDS011;20968;42.696;23.360;2023-02-28T11:13:30;39.85;;;15.70;;
34741;SDS011;20968;42.696;23.360;2023-02-28T11:15:59;22.17;;;10.32;;
34741;SDS011;20968;42.696;23.360;2023-02-28T11:18:29;54.08;;;21.38;;
34741;SDS011;20968;42.696;23.360;2023-02-28T11:20:55;38.50;;;18.17;;
34741;SDS011;20968;42.696;23.360;2023-02-28T11:23:29;29.73;;;14.65;;
34741;SDS011;20968;42.696;23.360;2023-02-28T11:25:58;37.73;;;12.83;;
34741;SDS011;20968;42.696;23.360;2023-02-28T11:28:28;27.45;;;12.80;;
34741;SDS011;20968;42.696;23.360;2023-02-28T11:31:15;28.52;;;13.00;;
34741;SDS011;20968;42.696;23.360;2023-02-28T11:33:45;30.40;;;11.30;;
34741;SDS011;20968;42.696;23.360;2023-02-28T11:36:19;26.85;;;10.73;;
34741;SDS011;20968;42.696;23.360;2023-02-28T11:38:49;22.80;;;11.20;;
34741;SDS011;20968;42.696;23.360;2023-02-28T11:46:30;22.13;;;10.90;;
34741;SDS011;20968;42.696;23.360;2023-02-28T11:51:47;21.77;;;9.65;;
34741;SDS011;20968;42.696;23.360;2023-02-28T11:54:48;24.17;;;9.95;;
34741;SDS011;20968;42.696;23.360;2023-02-28T12:04:11;25.70;;;9.98;;
34741;SDS011;20968;42.696;23.360;2023-02-28T12:06:27;18.50;;;9.18;;
34741;SDS011;20968;42.696;23.360;2023-02-28T12:09:08;20.92;;;9.75;;
34741;SDS011;20968;42.696;23.360;2023-02-28T12:17:45;21.08;;;9.15;;
34741;SDS011;20968;42.696;23.360;2023-02-28T12:28:48;29.50;;;11.95;;
34741;SDS011;20968;42.696;23.360;2023-02-28T12:31:23;26.02;;;10.05;;
34741;SDS011;20968;42.696;23.360;2023-02-28T12:33:52;24.30;;;10.27;;
34741;SDS011;20968;42.696;23.360;2023-02-28T12:36:21;22.15;;;11.07;;
34741;SDS011;20968;42.696;23.360;2023-02-28T12:38:51;19.48;;;10.15;;
34741;SDS011;20968;42.696;23.360;2023-02-28T12:41:29;23.25;;;10.00;;
34741;SDS011;20968;42.696;23.360;2023-02-28T12:44:06;24.58;;;9.32;;
34741;SDS011;20968;42.696;23.360;2023-02-28T12:46:37;19.25;;;8.55;;
34741;SDS011;20968;42.696;23.360;2023-02-28T12:49:19;32.67;;;10.32;;
34741;SDS011;20968;42.696;23.360;2023-02-28T12:51:45;21.92;;;8.80;;
34741;SDS011;20968;42.696;23.360;2023-02-28T12:54:25;23.75;;;9.35;;
34741;SDS011;20968;42.696;23.360;2023-02-28T12:57:09;24.20;;;9.55;;
34741;SDS011;20968;42.696;23.360;2023-02-28T13:10:45;16.70;;;9.27;;
34741;SDS011;20968;42.696;23.360;2023-02-28T13:13:15;20.88;;;8.52;;
34741;SDS011;20968;42.696;23.360;2023-02-28T13:15:59;31.35;;;9.25;;
34741;SDS011;20968;42.696;23.360;2023-02-28T13:18:42;24.55;;;9.57;;
34741;SDS011;20968;42.696;23.360;2023-02-28T13:21:21;30.52;;;9.80;;
34741;SDS011;20968;42.696;23.360;2023-02-28T13:26:21;26.58;;;10.00;;
34741;SDS011;20968;42.696;23.360;2023-02-28T13:28:56;26.15;;;11.00;;
34741;SDS011;20968;42.696;23.360;2023-02-28T13:31:24;22.92;;;8.70;;
34741;SDS011;20968;42.696;23.360;2023-02-28T13:36:23;22.92;;;9.32;;
34741;SDS011;20968;42.696;23.360;2023-02-28T13:38:52;27.27;;;10.85;;
34741;SDS011;20968;42.696;23.360;2023-02-28T13:44:11;34.55;;;10.52;;
34741;SDS011;20968;42.696;23.360;2023-02-28T13:49:18;30.08;;;14.07;;
34741;SDS011;20968;42.696;23.360;2023-02-28T13:51:47;21.90;;;10.30;;
34741;SDS011;20968;42.696;23.360;2023-02-28T13:55:00;21.27;;;9.25;;
34741;SDS011;20968;42.696;23.360;2023-02-28T14:03:00;24.95;;;9.10;;
34741;SDS011;20968;42.696;23.360;2023-02-28T14:05:46;23.80;;;8.88;;
34741;SDS011;20968;42.696;23.360;2023-02-28T14:08:19;18.63;;;8.82;;
34741;SDS011;20968;42.696;23.360;2023-02-28T14:10:49;21.48;;;8.13;;
34741;SDS011;20968;42.696;23.360;2023-02-28T14:15:57;20.80;;;7.82;;
34741;SDS011;20968;42.696;23.360;2023-02-28T14:18:31;28.05;;;9.23;;
34741;SDS011;20968;42.696;23.360;2023-02-28T14:21:48;31.83;;;9.63;;
34741;SDS011;20968;42.696;23.360;2023-02-28T14:38:20;21.35;;;10.15;;
34741;SDS011;20968;42.696;23.360;2023-02-28T14:40:51;25.42;;;10.68;;
34741;SDS011;20968;42.696;23.360;2023-02-28T14:43:20;16.73;;;8.25;;
34741;SDS011;20968;42.696;23.360;2023-02-28T14:46:01;15.50;;;7.60;;
34741;SDS011;20968;42.696;23.360;2023-02-28T14:48:29;23.48;;;8.52;;
34741;SDS011;20968;42.696;23.360;2023-02-28T14:50:56;20.35;;;8.52;;
34741;SDS011;20968;42.696;23.360;2023-02-28T14:53:25;20.55;;;9.05;;
34741;SDS011;20968;42.696;23.360;2023-02-28T14:55:56;38.83;;;10.10;;
34741;SDS011;20968;42.696;23.360;2023-02-28T15:00:52;18.23;;;7.85;;
34741;SDS011;20968;42.696;23.360;2023-02-28T15:03:21;35.80;;;9.13;;
34741;SDS011;20968;42.696;23.360;2023-02-28T15:05:57;24.48;;;9.02;;
34741;SDS011;20968;42.696;23.360;2023-02-28T15:08:25;15.98;;;8.73;;
34741;SDS011;20968;42.696;23.360;2023-02-28T15:13:40;20.90;;;9.10;;
34741;SDS011;20968;42.696;23.360;2023-02-28T15:16:24;17.88;;;8.40;;
34741;SDS011;20968;42.696;23.360;2023-02-28T15:21:25;22.30;;;9.75;;
34741;SDS011;20968;42.696;23.360;2023-02-28T15:24:00;23.73;;;9.30;;
34741;SDS011;20968;42.696;23.360;2023-02-28T15:26:53;21.65;;;9.25;;
34741;SDS011;20968;42.696;23.360;2023-02-28T15:29:23;16.50;;;8.45;;
34741;SDS011;20968;42.696;23.360;2023-02-28T15:32:24;17.50;;;9.23;;
34741;SDS011;20968;42.696;23.360;2023-02-28T15:34:46;19.27;;;10.93;;
34741;SDS011;20968;42.696;23.360;2023-02-28T15:43:05;34.85;;;12.70;;
34741;SDS011;20968;42.696;23.360;2023-02-28T15:45:45;19.77;;;10.88;;
34741;SDS011;20968;42.696;23.360;2023-02-28T15:48:16;21.58;;;9.98;;
34741;SDS011;20968;42.696;23.360;2023-02-28T15:50:46;19.02;;;9.32;;
34741;SDS011;20968;42.696;23.360;2023-02-28T15:53:15;15.50;;;8.52;;
34741;SDS011;20968;42.696;23.360;2023-02-28T15:55:44;19.08;;;8.20;;
34741;SDS011;20968;42.696;23.360;2023-02-28T15:58:10;17.00;;;8.65;;
34741;SDS011;20968;42.696;23.360;2023-02-28T16:00:38;16.73;;;8.80;;
34741;SDS011;20968;42.696;23.360;2023-02-28T16:03:22;19.23;;;8.90;;
34741;SDS011;20968;42.696;23.360;2023-02-28T16:06:07;17.52;;;8.50;;
34741;SDS011;20968;42.696;23.360;2023-02-28T16:08:51;17.92;;;9.32;;
34741;SDS011;20968;42.696;23.360;2023-02-28T16:11:18;15.23;;;8.75;;
34741;SDS011;20968;42.696;23.360;2023-02-28T16:13:45;12.30;;;6.80;;
34741;SDS011;20968;42.696;23.360;2023-02-28T16:16:17;17.08;;;7.07;;
34741;SDS011;20968;42.696;23.360;2023-02-28T16:18:49;15.00;;;6.68;;
34741;SDS011;20968;42.696;23.360;2023-02-28T16:21:15;12.82;;;6.45;;
34741;SDS011;20968;42.696;23.360;2023-02-28T16:23:40;15.05;;;6.78;;
34741;SDS011;20968;42.696;23.360;2023-02-28T16:26:09;14.35;;;7.35;;
34741;SDS011;20968;42.696;23.360;2023-02-28T16:28:44;11.82;;;6.57;;
34741;SDS011;20968;42.696;23.360;2023-02-28T16:31:10;16.70;;;7.35;;
34741;SDS011;20968;42.696;23.360;2023-02-28T16:33:41;17.48;;;7.53;;
34741;SDS011;20968;42.696;23.360;2023-02-28T16:36:12;13.77;;;7.28;;
34741;SDS011;20968;42.696;23.360;2023-02-28T16:38:42;15.57;;;7.25;;
34741;SDS011;20968;42.696;23.360;2023-02-28T16:41:08;15.70;;;7.55;;
34741;SDS011;20968;42.696;23.360;2023-02-28T16:43:44;69.15;;;22.35;;
34741;SDS011;20968;42.696;23.360;2023-02-28T16:46:12;19.20;;;8.75;;
34741;SDS011;20968;42.696;23.360;2023-02-28T16:48:38;12.82;;;7.18;;
34741;SDS011;20968;42.696;23.360;2023-02-28T16:51:05;17.25;;;7.32;;
34741;SDS011;20968;42.696;23.360;2023-02-28T16:53:31;21.33;;;10.60;;